Time;durP1;ratioP1;P1;durP2;ratioP2;P2;SDS_P1;SDS_P2;PMS_P1;PMS_P2;Temp;Humidity;BMP_temperature;BMP_pressure;BME280_temperature;BME280_humidity;BME280_pressure;Samples;Min_cycle;Max_cycle;Signal;HPM_P1;HPM_P2
2022/07/08 04:04:31;;;;;;;1.83;1.73;;;13.90;99.90;;;;;;5496857;22;20503;-62
2022/07/08 04:06:56;;;;;;;3.33;1.70;;;13.90;99.90;;;;;;5011685;28;20782;-62
2022/07/08 04:09:22;;;;;;;2.50;1.90;;;13.90;99.90;;;;;;5002477;28;20186;-63
2022/07/08 04:11:48;;;;;;;1.97;1.87;;;13.90;99.90;;;;;;4997444;28;20201;-62
2022/07/08 04:14:13;;;;;;;2.37;1.90;;;13.90;99.90;;;;;;5015856;28;20213;-62
2022/07/08 04:16:39;;;;;;;2.40;2.20;;;14.00;99.90;;;;;;5016137;28;20180;-63
2022/07/08 04:19:04;;;;;;;1.87;1.77;;;14.00;99.90;;;;;;5015272;28;20169;-63
2022/07/08 04:21:30;;;;;;;2.80;1.90;;;14.10;99.90;;;;;;5016170;28;20212;-63
2022/07/08 04:23:58;;;;;;;2.83;2.63;;;14.10;99.90;;;;;;5015395;28;20761;-65
2022/07/08 04:26:28;;;;;;;2.27;2.07;;;14.10;99.90;;;;;;4977354;28;20182;-63
2022/07/08 04:28:53;;;;;;;2.43;2.00;;;14.10;99.90;;;;;;4977026;28;20828;-62
2022/07/08 04:31:19;;;;;;;3.37;2.03;;;14.10;99.90;;;;;;4976802;28;20442;-63
2022/07/08 04:33:44;;;;;;;3.00;2.17;;;14.10;99.90;;;;;;4975295;28;20281;-63
2022/07/08 04:36:10;;;;;;;2.00;1.80;;;14.20;99.90;;;;;;4976907;28;20278;-64
2022/07/08 04:38:36;;;;;;;2.43;2.10;;;14.30;99.90;;;;;;4976793;28;20229;-63
2022/07/08 04:41:01;;;;;;;2.07;1.97;;;14.50;99.90;;;;;;4976607;28;20172;-63
2022/07/08 04:43:27;;;;;;;2.80;2.00;;;14.80;99.90;;;;;;4976290;28;20676;-63
2022/07/08 04:45:53;;;;;;;2.93;1.60;;;15.10;99.90;;;;;;4976592;28;20179;-63
2022/07/08 04:48:18;;;;;;;2.20;2.10;;;15.30;99.90;;;;;;4976702;28;20175;-63
2022/07/08 04:50:44;;;;;;;2.37;2.17;;;15.60;99.90;;;;;;4976379;28;20432;-64
2022/07/08 04:53:09;;;;;;;3.03;1.90;;;15.90;99.90;;;;;;4975972;28;20548;-63
2022/07/08 04:55:35;;;;;;;2.00;1.90;;;16.10;99.90;;;;;;4976256;28;20236;-64
2022/07/08 04:58:03;;;;;;;1.40;1.40;;;16.30;99.90;;;;;;4976624;28;20183;-63
2022/07/08 05:00:30;;;;;;;1.70;1.60;;;16.40;99.90;;;;;;4976532;28;20175;-63
2022/07/08 05:02:56;;;;;;;2.00;1.73;;;16.40;99.90;;;;;;5014728;28;20966;-63
2022/07/08 05:05:22;;;;;;;4.67;1.50;;;16.40;99.90;;;;;;5015118;28;20459;-65
2022/07/08 05:07:48;;;;;;;2.97;1.67;;;16.40;99.90;;;;;;5014988;28;20402;-62
2022/07/08 05:10:15;;;;;;;2.40;2.20;;;16.40;99.90;;;;;;5015162;28;20417;-64
2022/07/08 05:12:41;;;;;;;2.67;1.60;;;16.40;99.90;;;;;;5014646;28;20406;-63
2022/07/08 05:15:07;;;;;;;2.83;2.00;;;16.40;99.90;;;;;;5013473;28;20805;-63
2022/07/08 05:17:33;;;;;;;2.60;1.73;;;16.50;99.90;;;;;;5014933;28;20410;-63
2022/07/08 05:19:59;;;;;;;2.90;1.97;;;16.60;99.90;;;;;;5013112;28;20415;-63
2022/07/08 05:22:24;;;;;;;3.37;1.80;;;16.80;99.90;;;;;;4995106;28;20532;-62
2022/07/08 05:24:50;;;;;;;6.50;2.90;;;17.00;99.90;;;;;;4995065;28;20265;-63
2022/07/08 05:27:15;;;;;;;4.17;1.70;;;17.20;99.90;;;;;;4995281;28;20183;-63
2022/07/08 05:29:41;;;;;;;3.20;1.70;;;17.30;99.90;;;;;;4994956;28;20262;-64
2022/07/08 05:32:07;;;;;;;1.70;1.60;;;17.30;99.40;;;;;;4994665;28;20174;-62
2022/07/08 05:34:33;;;;;;;4.10;1.80;;;17.30;99.40;;;;;;4994451;28;20448;-63
2022/07/08 05:36:58;;;;;;;2.40;2.13;;;17.40;99.40;;;;;;4994183;28;20464;-63
2022/07/08 05:39:24;;;;;;;3.97;2.07;;;17.40;99.20;;;;;;5001636;28;20182;-63
2022/07/08 05:41:51;;;;;;;6.20;2.73;;;17.30;99.40;;;;;;4989643;28;20175;-63
2022/07/08 05:44:18;;;;;;;2.20;1.90;;;17.20;98.40;;;;;;4999378;28;20513;-62
2022/07/08 05:46:43;;;;;;;2.80;1.90;;;17.20;98.80;;;;;;4988223;28;20828;-61
2022/07/08 05:49:09;;;;;;;2.90;2.00;;;17.10;98.90;;;;;;5009559;28;20712;-61
2022/07/08 05:51:35;;;;;;;1.70;1.50;;;17.10;98.50;;;;;;5009177;28;20173;-64
2022/07/08 05:54:00;;;;;;;1.87;1.77;;;17.10;98.70;;;;;;4990009;28;20507;-61
2022/07/08 05:56:26;;;;;;;2.67;1.70;;;17.10;98.60;;;;;;4985868;28;20231;-65
2022/07/08 05:58:52;;;;;;;3.10;2.40;;;17.10;98.00;;;;;;4998820;28;20178;-62
2022/07/08 06:01:17;;;;;;;2.07;1.97;;;17.20;98.40;;;;;;5007309;28;20191;-62
2022/07/08 06:03:43;;;;;;;2.43;1.83;;;17.30;98.70;;;;;;4997976;28;20576;-63
2022/07/08 06:06:08;;;;;;;1.80;1.70;;;17.30;98.10;;;;;;5002080;28;20649;-62
2022/07/08 06:08:34;;;;;;;4.80;2.47;;;17.30;98.10;;;;;;4999950;28;20604;-62
2022/07/08 06:11:01;;;;;;;3.57;1.63;;;17.30;97.60;;;;;;5008736;28;20604;-62
2022/07/08 06:13:27;;;;;;;5.13;1.67;;;17.30;97.10;;;;;;5012655;28;20730;-62
2022/07/08 06:15:53;;;;;;;1.90;1.80;;;17.30;98.20;;;;;;5005344;28;20870;-62
2022/07/08 06:18:19;;;;;;;2.43;2.00;;;17.30;98.00;;;;;;5006008;28;20432;-63
2022/07/08 06:20:45;;;;;;;3.43;1.80;;;17.40;98.30;;;;;;4995470;28;20577;-63
2022/07/08 06:23:10;;;;;;;3.30;1.73;;;17.30;97.20;;;;;;4990911;28;20274;-67
2022/07/08 06:25:36;;;;;;;10.33;2.27;;;17.30;98.30;;;;;;4993500;28;20231;-62
2022/07/08 06:28:02;;;;;;;2.13;1.23;;;17.20;97.00;;;;;;4993968;28;20182;-62
2022/07/08 06:30:28;;;;;;;3.90;1.60;;;17.20;97.10;;;;;;4983447;28;20419;-62
2022/07/08 06:32:54;;;;;;;6.00;1.70;;;17.10;97.30;;;;;;4974122;28;20178;-61
2022/07/08 06:35:19;;;;;;;1.77;1.50;;;17.20;97.30;;;;;;4974403;28;20183;-63
2022/07/08 06:37:45;;;;;;;4.03;1.50;;;17.20;98.40;;;;;;4974535;28;20396;-61
2022/07/08 06:40:11;;;;;;;1.90;1.80;;;17.30;96.70;;;;;;4980406;28;20183;-62
2022/07/08 06:42:37;;;;;;;1.37;1.30;;;17.40;95.40;;;;;;4992839;28;20198;-62
2022/07/08 06:45:03;;;;;;;1.07;1.07;;;17.50;95.20;;;;;;4993732;28;20452;-63
2022/07/08 06:47:28;;;;;;;1.50;1.40;;;17.50;95.50;;;;;;4993820;28;20205;-63
2022/07/08 06:49:54;;;;;;;1.40;1.30;;;17.50;94.50;;;;;;4989676;28;20914;-62
2022/07/08 06:52:20;;;;;;;0.90;0.90;;;17.50;95.10;;;;;;4974245;28;20633;-61
2022/07/08 06:54:45;;;;;;;2.10;1.40;;;17.60;94.40;;;;;;4972903;28;20246;-62
2022/07/08 06:57:11;;;;;;;5.60;1.60;;;17.80;94.80;;;;;;4974426;28;20183;-62
2022/07/08 06:59:38;;;;;;;2.47;1.40;;;17.90;93.20;;;;;;4975243;28;20204;-62
2022/07/08 07:02:04;;;;;;;1.10;1.10;;;18.00;93.50;;;;;;4993711;28;20235;-64
2022/07/08 07:04:30;;;;;;;1.00;1.00;;;18.10;92.00;;;;;;4993048;28;20561;-64
2022/07/08 07:06:56;;;;;;;2.83;1.00;;;18.10;91.50;;;;;;4993770;28;20411;-62
2022/07/08 07:09:22;;;;;;;1.00;1.00;;;18.10;91.30;;;;;;4993805;28;20779;-63
2022/07/08 07:11:48;;;;;;;0.80;0.80;;;18.10;91.60;;;;;;4974748;28;20230;-64
2022/07/08 07:14:14;;;;;;;2.87;2.40;;;18.20;91.70;;;;;;4973832;28;20832;-63
2022/07/08 07:16:39;;;;;;;1.50;1.20;;;18.40;91.40;;;;;;4974081;28;20632;-64
2022/07/08 07:19:05;;;;;;;2.53;1.33;;;18.50;90.90;;;;;;4973972;28;20208;-72
2022/07/08 07:21:31;;;;;;;4.70;1.67;;;18.60;91.60;;;;;;4989239;28;20176;-67
2022/07/08 07:23:56;;;;;;;3.00;1.40;;;18.80;90.80;;;;;;4993115;28;20469;-67
2022/07/08 07:26:22;;;;;;;1.07;1.07;;;19.00;88.60;;;;;;4991148;28;20213;-68
2022/07/08 07:28:48;;;;;;;1.10;1.00;;;19.20;87.80;;;;;;4989933;28;20230;-70
2022/07/08 07:31:13;;;;;;;2.87;1.30;;;19.40;86.60;;;;;;4991591;28;20263;-68
2022/07/08 07:33:39;;;;;;;1.40;0.90;;;19.70;86.40;;;;;;4991305;28;20197;-69
2022/07/08 07:36:05;;;;;;;0.93;0.83;;;20.10;84.60;;;;;;4987439;28;20183;-69
2022/07/08 07:38:34;;;;;;;1.30;1.20;;;20.20;84.10;;;;;;4992088;28;20188;-68
2022/07/08 07:41:00;;;;;;;1.00;1.00;;;20.00;84.50;;;;;;4987860;28;20498;-69
2022/07/08 07:43:25;;;;;;;1.27;1.20;;;20.80;86.80;;;;;;4992721;28;20469;-68
2022/07/08 07:45:51;;;;;;;0.90;0.90;;;21.80;82.10;;;;;;4993115;28;20411;-68
2022/07/08 07:48:16;;;;;;;1.30;1.00;;;22.30;77.10;;;;;;4993136;28;20184;-69
2022/07/08 07:50:42;;;;;;;0.60;0.60;;;22.50;77.90;;;;;;4992349;28;20181;-69
2022/07/08 07:53:08;;;;;;;1.70;0.97;;;22.70;76.60;;;;;;4991238;28;20183;-69
2022/07/08 07:55:34;;;;;;;0.93;0.93;;;22.70;76.70;;;;;;4996856;28;20255;-69
2022/07/08 07:57:59;;;;;;;1.30;1.00;;;23.50;76.30;;;;;;4996814;28;20175;-73
2022/07/08 08:00:26;;;;;;;1.00;1.00;;;24.40;72.20;;;;;;4996200;28;20175;-70
2022/07/08 08:02:52;;;;;;;1.90;1.30;;;24.80;68.90;;;;;;4996264;28;20225;-69
2022/07/08 08:05:18;;;;;;;1.10;1.00;;;24.70;68.00;;;;;;4996799;28;20492;-68
2022/07/08 08:07:43;;;;;;;1.40;1.30;;;24.40;67.50;;;;;;4995469;28;20504;-68
2022/07/08 08:10:11;;;;;;;2.20;1.33;;;24.10;69.10;;;;;;4984500;28;20992;-68
2022/07/08 08:12:37;;;;;;;8.43;1.13;;;23.90;70.00;;;;;;4996327;28;20199;-68
2022/07/08 08:15:03;;;;;;;0.93;0.90;;;24.30;71.60;;;;;;4993447;28;20410;-69
2022/07/08 08:17:35;;;;;;;2.17;1.17;;;24.90;69.10;;;;;;4993585;28;20389;-69
2022/07/08 08:20:01;;;;;;;1.00;1.00;;;26.00;69.00;;;;;;4996075;28;20399;-70
2022/07/08 08:22:27;;;;;;;1.80;1.20;;;27.20;66.80;;;;;;4996064;28;20468;-67
2022/07/08 08:24:52;;;;;;;1.17;1.13;;;28.10;61.80;;;;;;4996466;28;20266;-68
2022/07/08 08:27:18;;;;;;;1.20;1.10;;;28.80;58.40;;;;;;4996647;28;20917;-67
2022/07/08 08:29:44;;;;;;;1.50;1.20;;;29.00;57.70;;;;;;4994625;28;20168;-67
2022/07/08 08:32:09;;;;;;;1.80;1.10;;;28.50;56.30;;;;;;4981547;28;20639;-67
2022/07/08 08:34:35;;;;;;;1.80;1.27;;;28.80;59.50;;;;;;4994973;28;20199;-67
2022/07/08 08:37:01;;;;;;;1.13;1.03;;;29.00;57.80;;;;;;4995955;28;20179;-66
2022/07/08 08:39:26;;;;;;;1.67;1.37;;;28.30;56.50;;;;;;4996219;28;20218;-66
2022/07/08 08:41:52;;;;;;;1.47;1.20;;;28.30;58.00;;;;;;4980903;28;20188;-66
2022/07/08 08:44:17;;;;;;;1.47;1.37;;;28.60;56.70;;;;;;4975963;28;20207;-66
2022/07/08 08:46:44;;;;;;;1.50;1.40;;;28.90;57.00;;;;;;4976712;28;20171;-67
2022/07/08 08:49:10;;;;;;;1.20;1.20;;;29.60;56.40;;;;;;4976683;28;20307;-67
2022/07/08 08:51:39;;;;;;;1.07;1.00;;;30.10;54.00;;;;;;4987136;28;20929;-66
2022/07/08 08:54:06;;;;;;;2.00;1.37;;;30.40;54.40;;;;;;4995541;28;20409;-67
2022/07/08 08:56:33;;;;;;;2.10;1.30;;;30.90;54.90;;;;;;4995914;28;20415;-67
2022/07/08 08:59:00;;;;;;;2.87;1.40;;;31.00;54.20;;;;;;4995884;28;20473;-70
2022/07/08 09:01:28;;;;;;;1.57;1.47;;;31.50;52.40;;;;;;4987388;28;20420;-69
2022/07/08 09:03:53;;;;;;;1.03;1.00;;;31.70;51.80;;;;;;4975685;28;20967;-65
2022/07/08 09:06:19;;;;;;;1.50;1.40;;;31.50;50.20;;;;;;4975663;28;20498;-66
2022/07/08 09:08:45;;;;;;;1.73;1.40;;;30.70;51.00;;;;;;4974981;28;20188;-69
2022/07/08 09:11:10;;;;;;;2.40;1.20;;;29.60;52.90;;;;;;4981882;28;20203;-68
2022/07/08 09:13:36;;;;;;;3.10;1.40;;;28.80;53.70;;;;;;4995029;28;20595;-68
2022/07/08 09:16:01;;;;;;;1.97;1.57;;;28.10;56.70;;;;;;4995707;28;20179;-67
2022/07/08 09:18:34;;;;;;;1.10;1.10;;;28.00;57.20;;;;;;4995617;28;20182;-68
2022/07/08 09:21:01;;;;;;;1.60;1.30;;;28.10;56.10;;;;;;4990935;28;20184;-70
2022/07/08 09:23:32;;;;;;;1.80;1.40;;;28.50;54.40;;;;;;4975408;28;20459;-68
2022/07/08 09:26:05;;;;;;;1.40;1.30;;;29.10;55.80;;;;;;4975963;28;20408;-68
2022/07/08 09:28:39;;;;;;;1.40;1.23;;;29.60;52.80;;;;;;4976058;28;20400;-65
2022/07/08 09:31:08;;;;;;;1.47;1.37;;;30.10;52.60;;;;;;4979849;28;20434;-71
2022/07/08 09:33:34;;;;;;;1.23;1.13;;;30.40;51.60;;;;;;4994866;28;20528;-66
2022/07/08 09:36:01;;;;;;;1.73;1.20;;;30.30;52.60;;;;;;4995438;28;20768;-66
2022/07/08 09:38:35;;;;;;;1.20;1.10;;;30.40;52.00;;;;;;4995164;28;20415;-69
2022/07/08 09:41:02;;;;;;;2.20;1.30;;;30.40;52.00;;;;;;4991313;28;20440;-69
2022/07/08 09:43:28;;;;;;;1.00;1.00;;;31.00;52.30;;;;;;4973698;28;20463;-68
2022/07/08 09:45:55;;;;;;;1.60;1.47;;;31.70;51.50;;;;;;4975549;28;20942;-69
2022/07/08 09:48:24;;;;;;;1.73;1.63;;;32.40;50.60;;;;;;4975518;28;20383;-68
2022/07/08 09:50:50;;;;;;;1.53;1.43;;;32.10;50.10;;;;;;4976321;28;20426;-67
2022/07/08 09:53:16;;;;;;;3.50;1.50;;;30.60;50.50;;;;;;4994442;28;20426;-73
2022/07/08 09:55:43;;;;;;;1.33;1.23;;;29.40;52.60;;;;;;4994793;28;20171;-67
2022/07/08 09:58:12;;;;;;;1.30;1.20;;;29.10;54.20;;;;;;4995029;28;20190;-69
2022/07/08 10:00:39;;;;;;;1.20;1.10;;;29.00;53.80;;;;;;4993417;28;20421;-66
2022/07/08 10:03:05;;;;;;;7.73;1.50;;;29.10;52.60;;;;;;4974719;28;20923;-68
2022/07/08 10:05:31;;;;;;;1.50;1.20;;;29.00;54.50;;;;;;4975135;28;20439;-69
2022/07/08 10:07:57;;;;;;;0.90;0.90;;;29.70;54.80;;;;;;4974996;28;20424;-70
2022/07/08 10:10:24;;;;;;;1.10;1.10;;;30.40;52.50;;;;;;4975440;28;20573;-70
2022/07/08 10:12:56;;;;;;;2.40;1.67;;;30.80;51.60;;;;;;4990982;28;20519;-72
2022/07/08 10:15:23;;;;;;;1.07;1.00;;;30.40;51.10;;;;;;4994463;28;20403;-67
2022/07/08 10:17:50;;;;;;;2.93;1.10;;;29.30;51.50;;;;;;4993507;28;20418;-71
2022/07/08 10:20:18;;;;;;;1.10;1.10;;;29.20;53.60;;;;;;4984468;28;20447;-69
2022/07/08 10:22:50;;;;;;;1.10;1.10;;;29.40;53.80;;;;;;4974084;28;20473;-71
2022/07/08 10:25:18;;;;;;;1.43;1.30;;;29.70;53.60;;;;;;4974764;28;20993;-70
2022/07/08 10:27:45;;;;;;;2.70;1.40;;;29.90;51.60;;;;;;4975026;28;20404;-72
2022/07/08 10:30:18;;;;;;;1.53;1.43;;;30.40;50.30;;;;;;4982776;28;20782;-72
2022/07/08 10:32:48;;;;;;;1.17;1.17;;;30.70;49.70;;;;;;4993907;28;20415;-69
2022/07/08 10:35:21;;;;;;;1.13;1.13;;;30.60;50.70;;;;;;4994143;28;20464;-70
2022/07/08 10:37:49;;;;;;;1.57;1.23;;;30.40;50.90;;;;;;4993918;28;20407;-66
2022/07/08 10:40:48;;;;;;;0.93;0.93;;;29.60;51.80;;;;;;4985803;28;20423;-69
2022/07/08 10:43:24;;;;;;;1.90;1.20;;;29.20;54.20;;;;;;4973803;28;20438;-70
2022/07/08 10:46:15;;;;;;;1.37;1.27;;;29.00;52.40;;;;;;4974736;28;20495;-69
2022/07/08 10:48:41;;;;;;;1.17;1.10;;;28.80;52.60;;;;;;4972114;28;20510;-66
2022/07/08 10:51:27;;;;;;;1.33;0.90;;;28.60;52.70;;;;;;4986939;28;20992;-69
2022/07/08 10:53:53;;;;;;;1.00;1.00;;;28.70;52.00;;;;;;4986320;28;20273;-67
2022/07/08 10:56:48;;;;;;;2.57;1.47;;;28.30;53.50;;;;;;4992501;28;20396;-66
2022/07/08 10:59:17;;;;;;;3.13;1.73;;;28.50;54.30;;;;;;4993915;28;20385;-67
2022/07/08 11:02:03;;;;;;;1.17;1.17;;;28.20;53.20;;;;;;4975076;28;20435;-69
2022/07/08 11:04:35;;;;;;;1.30;1.10;;;28.10;53.50;;;;;;4973754;28;20496;-67
2022/07/08 11:07:28;;;;;;;1.93;1.23;;;28.30;54.40;;;;;;4974412;28;20731;-66
2022/07/08 11:10:11;;;;;;;1.07;1.00;;;28.30;54.00;;;;;;4977899;28;20822;-67
2022/07/08 11:12:46;;;;;;;1.07;0.93;;;28.40;53.40;;;;;;4993317;28;20408;-69
2022/07/08 11:15:17;;;;;;;1.27;1.00;;;28.50;55.20;;;;;;4993808;28;20404;-68
2022/07/08 11:17:46;;;;;;;2.50;1.30;;;28.30;53.60;;;;;;4993877;28;20436;-70
2022/07/08 11:20:13;;;;;;;2.30;1.03;;;27.90;55.00;;;;;;4987651;28;20462;-70
2022/07/08 11:22:42;;;;;;;1.10;1.00;;;27.30;55.80;;;;;;4973902;28;20418;-66
2022/07/08 11:25:11;;;;;;;3.63;1.00;;;26.50;55.20;;;;;;4974123;28;20816;-68
2022/07/08 11:27:37;;;;;;;1.47;1.30;;;25.70;57.30;;;;;;4974029;28;20375;-68
2022/07/08 11:30:06;;;;;;;0.83;0.83;;;25.00;57.30;;;;;;4981096;28;20452;-66
2022/07/08 11:32:32;;;;;;;3.90;1.30;;;24.30;57.50;;;;;;4997159;28;20202;-68
2022/07/08 11:34:58;;;;;;;1.10;1.07;;;23.70;59.80;;;;;;4997287;28;20426;-67
2022/07/08 11:37:24;;;;;;;0.90;0.90;;;23.20;59.70;;;;;;4997356;28;20175;-66
2022/07/08 11:39:50;;;;;;;4.00;0.93;;;22.90;63.40;;;;;;4994958;28;20192;-68
2022/07/08 11:42:16;;;;;;;5.03;1.50;;;22.70;63.80;;;;;;4977504;28;20893;-70
2022/07/08 11:44:43;;;;;;;1.17;1.00;;;22.60;64.60;;;;;;4977574;28;20223;-69
2022/07/08 11:47:15;;;;;;;2.47;2.33;;;22.40;66.60;;;;;;4977762;28;20408;-66
2022/07/08 11:49:42;;;;;;;2.17;1.10;;;22.30;62.50;;;;;;4978350;28;20408;-67
2022/07/08 11:52:08;;;;;;;2.13;1.03;;;22.20;63.10;;;;;;4997412;28;20384;-70
2022/07/08 11:54:34;;;;;;;1.30;1.10;;;22.00;66.20;;;;;;4995235;28;20416;-68
2022/07/08 11:57:01;;;;;;;1.10;1.00;;;22.00;65.10;;;;;;4997062;28;20411;-68
2022/07/08 11:59:32;;;;;;;2.00;1.17;;;21.90;66.70;;;;;;4996390;28;20177;-65
2022/07/08 12:02:02;;;;;;;1.53;1.10;;;21.90;66.00;;;;;;4977059;28;20413;-68
2022/07/08 12:04:29;;;;;;;1.00;1.00;;;21.80;67.20;;;;;;4976664;28;20554;-68
2022/07/08 12:06:59;;;;;;;1.47;1.10;;;21.60;67.00;;;;;;4977361;28;20408;-65
2022/07/08 12:09:26;;;;;;;1.40;1.30;;;21.60;66.30;;;;;;4977232;28;20419;-68
2022/07/08 12:11:54;;;;;;;1.27;1.17;;;21.60;69.40;;;;;;4994382;28;20509;-66
2022/07/08 12:14:21;;;;;;;0.80;0.80;;;21.70;69.90;;;;;;4995529;28;20919;-66
2022/07/08 12:16:52;;;;;;;1.17;1.07;;;21.90;70.10;;;;;;4977165;28;20489;-65
2022/07/08 12:19:45;;;;;;;3.60;1.27;;;22.00;68.00;;;;;;4977485;28;20414;-65
2022/07/08 12:22:13;;;;;;;3.70;1.17;;;22.10;68.90;;;;;;4976547;28;20443;-64
2022/07/08 12:24:42;;;;;;;2.10;1.27;;;22.30;69.20;;;;;;4977630;28;20504;-64
2022/07/08 12:27:10;;;;;;;1.13;1.03;;;22.40;67.40;;;;;;4996174;28;20379;-64
2022/07/08 12:29:37;;;;;;;1.33;1.23;;;22.50;69.40;;;;;;4996501;28;20426;-63
2022/07/08 12:32:03;;;;;;;3.40;1.13;;;22.50;66.20;;;;;;4996103;28;20426;-64
2022/07/08 12:34:29;;;;;;;1.43;1.37;;;22.40;66.00;;;;;;4994935;28;20449;-64
2022/07/08 12:37:16;;;;;;;1.20;1.20;;;22.30;65.90;;;;;;4996030;28;20907;-64
2022/07/08 12:39:41;;;;;;;9.60;1.60;;;22.20;65.70;;;;;;4995938;28;20175;-63
2022/07/08 12:42:07;;;;;;;2.83;1.00;;;22.00;65.40;;;;;;4996228;28;20424;-64
2022/07/08 12:44:40;;;;;;;1.17;1.13;;;21.90;66.00;;;;;;4984750;28;20208;-65
2022/07/08 12:47:08;;;;;;;0.87;0.87;;;21.90;69.10;;;;;;4992636;28;20893;-65
2022/07/08 12:49:36;;;;;;;1.50;1.40;;;22.00;67.00;;;;;;4994564;28;20412;-64
2022/07/08 12:52:04;;;;;;;1.67;1.10;;;22.00;64.70;;;;;;4996173;28;20442;-64
2022/07/08 12:54:29;;;;;;;1.17;1.10;;;21.90;65.20;;;;;;4995377;28;20513;-64
2022/07/08 12:56:56;;;;;;;4.27;1.40;;;21.80;65.50;;;;;;4981923;28;20550;-63
2022/07/08 12:59:23;;;;;;;2.40;1.30;;;21.70;66.70;;;;;;4976556;28;20192;-64
2022/07/08 13:01:50;;;;;;;1.33;1.33;;;21.70;67.50;;;;;;4976226;28;20419;-63
2022/07/08 13:04:19;;;;;;;2.60;1.40;;;21.80;70.10;;;;;;4975605;28;20839;-64
2022/07/08 13:06:46;;;;;;;1.87;1.23;;;21.90;67.30;;;;;;4988046;28;20942;-65
2022/07/08 13:09:12;;;;;;;1.10;1.10;;;21.90;66.30;;;;;;4995655;28;20411;-64
2022/07/08 13:11:42;;;;;;;1.20;1.10;;;21.90;66.80;;;;;;4995913;28;20913;-64
2022/07/08 13:14:08;;;;;;;2.30;1.00;;;21.90;68.90;;;;;;4995252;28;20779;-63
2022/07/08 13:16:35;;;;;;;1.30;1.30;;;21.80;65.40;;;;;;4984904;28;20428;-63
2022/07/08 13:19:01;;;;;;;1.80;1.30;;;21.80;66.20;;;;;;4976313;28;20412;-63
2022/07/08 13:21:30;;;;;;;1.10;1.10;;;21.70;66.40;;;;;;4975847;28;20824;-64
2022/07/08 13:23:57;;;;;;;1.70;1.57;;;21.80;65.20;;;;;;4975377;28;20491;-64
2022/07/08 13:26:23;;;;;;;1.03;1.03;;;21.70;66.20;;;;;;4984323;28;20502;-64
2022/07/08 13:28:51;;;;;;;1.20;1.10;;;21.60;67.40;;;;;;4995256;28;20938;-65
2022/07/08 13:31:20;;;;;;;1.10;1.00;;;21.60;67.20;;;;;;4993802;28;20419;-64
2022/07/08 13:33:48;;;;;;;1.60;1.50;;;21.60;70.00;;;;;;4994608;28;20431;-65
2022/07/08 13:36:15;;;;;;;1.60;1.50;;;21.70;68.00;;;;;;4988139;28;20772;-63
2022/07/08 13:38:41;;;;;;;1.57;1.47;;;21.80;66.50;;;;;;4975879;28;20411;-64
2022/07/08 13:41:07;;;;;;;3.03;1.30;;;21.80;67.10;;;;;;4975713;28;20419;-65
2022/07/08 13:43:32;;;;;;;1.30;1.00;;;21.80;65.90;;;;;;4974904;28;20961;-64
2022/07/08 13:45:58;;;;;;;1.20;1.20;;;21.70;66.30;;;;;;4979795;28;20252;-63
2022/07/08 13:48:24;;;;;;;1.20;1.10;;;21.70;66.40;;;;;;4993650;28;20179;-68
2022/07/08 13:50:49;;;;;;;1.23;1.13;;;21.80;69.60;;;;;;4994785;28;20171;-64
2022/07/08 13:53:15;;;;;;;1.20;1.20;;;21.80;67.70;;;;;;4994523;28;20254;-65
2022/07/08 13:55:41;;;;;;;3.00;1.67;;;21.90;65.70;;;;;;4993954;28;20687;-67
2022/07/08 13:58:06;;;;;;;1.30;1.30;;;21.90;69.80;;;;;;4975395;28;20177;-64
2022/07/08 14:00:32;;;;;;;1.93;1.77;;;21.90;69.20;;;;;;4975338;28;20598;-65
2022/07/08 14:02:58;;;;;;;1.50;1.40;;;22.10;69.20;;;;;;4973483;28;20207;-67
2022/07/08 14:05:23;;;;;;;1.70;1.20;;;22.20;68.90;;;;;;4974954;28;20192;-64
2022/07/08 14:07:49;;;;;;;1.60;1.33;;;22.20;67.90;;;;;;4992431;28;20780;-65
2022/07/08 14:10:14;;;;;;;1.40;1.30;;;22.30;69.50;;;;;;4994692;28;20177;-64
2022/07/08 14:12:40;;;;;;;2.10;1.17;;;22.40;69.40;;;;;;4994343;28;20214;-65
2022/07/08 14:15:06;;;;;;;1.30;1.30;;;22.50;68.20;;;;;;4994075;28;20261;-66
2022/07/08 14:17:34;;;;;;;1.50;1.40;;;22.50;66.60;;;;;;4978963;28;20560;-64
2022/07/08 14:20:00;;;;;;;3.47;1.30;;;22.50;65.30;;;;;;4974927;28;20764;-71
2022/07/08 14:22:26;;;;;;;1.60;1.50;;;22.50;65.40;;;;;;4974754;28;20400;-69
2022/07/08 14:24:52;;;;;;;2.60;1.10;;;22.40;64.70;;;;;;4974772;28;20468;-69
2022/07/08 14:27:18;;;;;;;2.17;1.30;;;22.40;64.80;;;;;;4987596;28;20175;-71
2022/07/08 14:29:43;;;;;;;1.70;1.60;;;22.30;65.60;;;;;;4994232;28;20206;-70
2022/07/08 14:32:09;;;;;;;3.40;2.80;;;22.30;65.60;;;;;;4993789;28;20172;-70
2022/07/08 14:34:35;;;;;;;1.33;1.23;;;22.20;65.40;;;;;;4993486;28;20204;-72
2022/07/08 14:37:01;;;;;;;0.90;0.90;;;22.20;65.50;;;;;;4983395;28;20185;-69
2022/07/08 14:39:27;;;;;;;2.20;1.40;;;22.20;67.00;;;;;;4974654;28;20386;-69
2022/07/08 14:41:53;;;;;;;2.23;2.03;;;22.20;67.30;;;;;;4974558;28;20840;-68
2022/07/08 14:44:18;;;;;;;3.10;2.07;;;22.20;66.10;;;;;;4991073;28;20447;-69
2022/07/08 14:46:45;;;;;;;3.17;1.60;;;22.30;68.50;;;;;;4986912;28;20520;-69
2022/07/08 14:49:11;;;;;;;1.20;1.20;;;22.40;67.50;;;;;;4991902;28;20185;-69
2022/07/08 14:51:37;;;;;;;2.03;1.23;;;22.40;68.40;;;;;;4992802;28;20771;-69
2022/07/08 14:54:03;;;;;;;1.60;1.50;;;22.50;66.30;;;;;;4991805;28;20407;-68
2022/07/08 14:56:30;;;;;;;3.90;1.60;;;22.50;65.60;;;;;;4991918;28;20683;-68
2022/07/08 14:58:57;;;;;;;1.57;1.47;;;22.50;66.10;;;;;;4992314;28;20865;-71
2022/07/08 15:01:22;;;;;;;3.20;1.33;;;22.40;66.40;;;;;;4991739;28;20892;-68
2022/07/08 15:03:48;;;;;;;3.47;1.83;;;22.40;66.50;;;;;;4993658;28;20502;-69
2022/07/08 15:06:14;;;;;;;1.60;1.50;;;22.40;65.50;;;;;;4996171;28;20187;-71
2022/07/08 15:08:40;;;;;;;2.77;1.77;;;22.30;64.80;;;;;;4996619;28;20176;-69
2022/07/08 15:11:05;;;;;;;2.03;1.30;;;22.30;65.80;;;;;;4995513;28;20560;-67
2022/07/08 15:13:31;;;;;;;1.90;1.80;;;22.30;67.00;;;;;;4995894;28;20203;-69
2022/07/08 15:15:58;;;;;;;1.87;1.77;;;22.30;65.00;;;;;;4996571;28;20266;-70
2022/07/08 15:18:24;;;;;;;1.10;1.10;;;22.30;64.80;;;;;;4997749;28;20639;-65
2022/07/08 15:20:50;;;;;;;2.50;2.30;;;22.20;67.00;;;;;;4996368;28;20413;-67
2022/07/08 15:23:20;;;;;;;2.27;2.00;;;22.30;67.40;;;;;;4997043;28;20448;-68
2022/07/08 15:25:46;;;;;;;2.87;1.80;;;22.30;67.00;;;;;;4997634;28;20395;-68
2022/07/08 15:28:13;;;;;;;2.20;1.70;;;22.30;68.00;;;;;;4996881;28;20405;-69
2022/07/08 15:30:38;;;;;;;2.83;1.80;;;22.40;67.10;;;;;;4997238;28;20439;-64
2022/07/08 15:33:06;;;;;;;3.30;1.50;;;22.40;67.20;;;;;;4996773;28;20416;-64
2022/07/08 15:35:33;;;;;;;2.90;1.40;;;22.40;66.60;;;;;;4995896;28;20434;-64
2022/07/08 15:37:58;;;;;;;1.37;1.27;;;22.40;65.70;;;;;;4995995;28;20423;-66
2022/07/08 15:40:24;;;;;;;2.30;1.50;;;22.40;66.10;;;;;;4996471;28;20418;-66
2022/07/08 15:42:50;;;;;;;2.40;1.50;;;22.40;66.40;;;;;;4997004;28;20202;-64
2022/07/08 15:45:16;;;;;;;1.20;1.20;;;22.40;67.70;;;;;;4997092;28;20690;-65
2022/07/08 15:47:41;;;;;;;2.13;1.50;;;22.30;66.30;;;;;;4996442;28;20190;-65
2022/07/08 15:50:07;;;;;;;2.50;1.80;;;22.30;65.50;;;;;;4997400;28;20576;-66
2022/07/08 15:52:33;;;;;;;1.67;1.30;;;22.30;67.60;;;;;;4996718;28;20175;-67
2022/07/08 15:54:58;;;;;;;3.60;1.77;;;22.30;65.40;;;;;;4996977;28;20437;-68
2022/07/08 15:57:26;;;;;;;1.43;1.33;;;22.30;64.90;;;;;;4985402;28;20178;-69
2022/07/08 15:59:52;;;;;;;1.80;1.20;;;22.30;63.60;;;;;;4977607;28;20286;-64
2022/07/08 16:02:17;;;;;;;1.17;1.17;;;22.30;64.20;;;;;;4977246;28;20410;-68
2022/07/08 16:04:43;;;;;;;1.30;1.20;;;22.20;64.10;;;;;;4977237;28;20275;-66
2022/07/08 16:07:09;;;;;;;1.43;0.90;;;22.20;64.10;;;;;;4986473;28;20575;-66
2022/07/08 16:09:35;;;;;;;1.43;1.33;;;22.20;63.80;;;;;;4996747;28;20171;-67
2022/07/08 16:12:01;;;;;;;1.37;1.37;;;22.10;64.10;;;;;;4996705;28;20407;-64
2022/07/08 16:14:27;;;;;;;1.43;1.30;;;22.10;64.50;;;;;;4995718;28;20202;-68
2022/07/08 16:16:52;;;;;;;16.20;3.67;;;22.10;64.90;;;;;;4989656;28;20835;-67
2022/07/08 16:19:19;;;;;;;17.47;4.53;;;22.10;65.40;;;;;;4977546;28;20438;-67
2022/07/08 16:21:44;;;;;;;2.67;1.40;;;22.10;66.40;;;;;;4996665;28;20419;-66
2022/07/08 16:24:11;;;;;;;1.77;1.43;;;22.10;65.90;;;;;;4996026;28;20433;-65
2022/07/08 16:26:37;;;;;;;1.67;1.17;;;22.10;65.00;;;;;;4995469;28;20172;-66
2022/07/08 16:29:03;;;;;;;2.47;1.73;;;22.10;64.40;;;;;;4996424;28;20397;-65
2022/07/08 16:31:29;;;;;;;1.27;1.20;;;22.10;63.50;;;;;;4978620;28;20714;-68
2022/07/08 16:33:55;;;;;;;1.27;1.17;;;22.10;63.70;;;;;;4976561;28;20494;-64
2022/07/08 16:36:20;;;;;;;1.43;1.33;;;22.10;65.60;;;;;;4977000;28;20183;-66
2022/07/08 16:38:46;;;;;;;1.33;1.23;;;22.10;64.90;;;;;;4976644;28;20172;-67
2022/07/08 16:41:12;;;;;;;2.00;1.80;;;22.10;62.50;;;;;;4991190;28;20249;-67
2022/07/08 16:43:37;;;;;;;1.60;1.50;;;22.00;63.20;;;;;;4995482;28;20564;-68
2022/07/08 16:46:03;;;;;;;4.70;1.30;;;22.00;65.40;;;;;;4995649;28;20480;-68
2022/07/08 16:48:29;;;;;;;4.30;1.40;;;22.00;65.00;;;;;;4996046;28;20183;-68